Aviation Digital Data Service (ADDS)

Output produced by METARs form (1524 UTC 19 January 2019)
found at http://www.aviationweather.gov/metar/data/
 
Forecast for: OEDR (DHAHRAN INTL (MI, SA)
Text: TAF OEDR 190800Z 1912/2018 35015KT 8000 SKC
Forecast period: 1200 to 1800 UTC 19 January 2019
Forecast type: FROM: standard forecast or significant change
Winds: from the N (350 degrees) at 17 MPH (15 knots; 7.7 m/s)
Visibility: 5 miles (8 km)
Clouds: clear skies
Weather: no significant weather forecast for this period
Text: BECMG 1918/1920 28008KT
Forecast period: 1800 UTC 19 January 2019 to 1800 UTC 20 January 2019
Forecast type: BECOMING: Conditions expected to become as follows by 2000 UTC 19 January 2019
Winds: from the W (280 degrees) at 9 MPH (8 knots; 4.1 m/s)
Visibility: 5 miles (8 km)
Clouds: clear skies
Weather: no significant weather forecast for this period